createdAt,value
2023-04-18T00:00:49.778Z,99694.50
2023-04-18T00:03:17.663Z,99695.84
2023-04-18T00:05:48.322Z,99695.47
2023-04-18T00:08:16.059Z,99699.00
2023-04-18T00:10:43.775Z,99698.69
2023-04-18T00:13:12.102Z,99698.47
2023-04-18T00:15:39.622Z,99704.37
2023-04-18T00:18:08.476Z,99701.94
2023-04-18T00:20:38.957Z,99707.03
2023-04-18T00:23:07.815Z,99707.06
2023-04-18T00:25:37.282Z,99696.56
2023-04-18T00:28:04.710Z,99710.28
2023-04-18T00:30:33.717Z,99706.66
2023-04-18T00:33:01.479Z,99704.75
2023-04-18T00:35:28.930Z,99704.22
2023-04-18T00:37:56.593Z,99705.28
2023-04-18T00:40:24.584Z,99701.53
2023-04-18T00:42:51.981Z,99707.12
2023-04-18T00:45:19.648Z,99701.19
2023-04-18T00:47:47.059Z,99703.28
2023-04-18T00:50:14.853Z,99691.81
2023-04-18T00:52:44.342Z,99695.28
2023-04-18T00:55:11.894Z,99693.84
2023-04-18T00:57:39.312Z,99693.06
2023-04-18T01:00:10.451Z,99694.34
2023-04-18T01:02:39.766Z,99689.69
2023-04-18T01:05:08.221Z,99690.03
2023-04-18T01:07:37.387Z,99678.31
2023-04-18T01:10:05.262Z,99691.56
2023-04-18T01:12:32.923Z,99687.13
2023-04-18T01:15:00.785Z,99688.16
2023-04-18T01:17:29.736Z,99691.19
2023-04-18T01:19:57.981Z,99684.69
2023-04-18T01:22:30.895Z,99692.91
2023-04-18T01:24:59.840Z,99691.50
2023-04-18T01:27:27.276Z,99704.66
2023-04-18T01:29:54.667Z,99697.72
2023-04-18T01:32:22.396Z,99697.66
2023-04-18T01:34:49.922Z,99702.19
2023-04-18T01:37:17.661Z,99696.00
2023-04-18T01:39:45.338Z,99702.91
2023-04-18T01:42:12.737Z,99702.97
2023-04-18T01:44:40.069Z,99709.09
2023-04-18T01:47:07.674Z,99697.47
2023-04-18T01:49:35.093Z,99697.75
2023-04-18T01:52:02.500Z,99705.78
2023-04-18T01:54:30.272Z,99708.16
2023-04-18T01:56:57.688Z,99702.34
2023-04-18T01:59:25.244Z,99699.44
2023-04-18T02:01:52.993Z,99708.75
2023-04-18T02:04:20.754Z,99697.47
2023-04-18T02:06:48.210Z,99708.34
2023-04-18T02:09:15.654Z,99704.56
2023-04-18T02:11:43.624Z,99712.88
2023-04-18T02:14:11.091Z,99711.84
2023-04-18T02:16:38.982Z,99715.84
2023-04-18T02:19:06.436Z,99718.47
2023-04-18T02:21:34.806Z,99714.62
2023-04-18T02:24:02.512Z,99712.75
2023-04-18T02:26:29.918Z,99718.75
2023-04-18T02:28:58.796Z,99714.41
2023-04-18T02:31:26.915Z,99705.72
2023-04-18T02:33:54.350Z,99707.16
2023-04-18T02:36:23.351Z,99715.97
2023-04-18T02:38:51.056Z,99704.94
2023-04-18T02:41:21.126Z,99714.47
2023-04-18T02:43:48.604Z,99710.75
2023-04-18T02:46:16.717Z,99716.41
2023-04-18T02:48:45.634Z,99711.56
2023-04-18T02:51:13.617Z,99710.84
2023-04-18T02:53:42.032Z,99708.66
2023-04-18T02:56:09.609Z,99720.38
2023-04-18T02:58:38.725Z,99729.06
2023-04-18T03:01:07.671Z,99723.41
2023-04-18T03:03:37.290Z,99721.38
2023-04-18T03:06:06.572Z,99727.50
2023-04-18T03:08:34.622Z,99735.75
2023-04-18T03:11:02.061Z,99731.66
2023-04-18T03:13:30.512Z,99740.72
2023-04-18T03:15:59.038Z,99744.84
2023-04-18T03:18:27.022Z,99748.47
2023-04-18T03:20:55.082Z,99747.69
2023-04-18T03:23:22.941Z,99736.75
2023-04-18T03:25:50.399Z,99748.78
2023-04-18T03:28:17.840Z,99742.03
2023-04-18T03:30:45.676Z,99745.72
2023-04-18T03:33:14.820Z,99741.81
2023-04-18T03:35:43.237Z,99748.63
2023-04-18T03:38:10.914Z,99747.66
2023-04-18T03:40:38.590Z,99746.53
2023-04-18T03:43:06.302Z,99746.03
2023-04-18T03:45:34.203Z,99753.78
2023-04-18T03:48:01.846Z,99744.16
2023-04-18T03:50:30.189Z,99745.69
2023-04-18T03:52:58.269Z,99746.66
2023-04-18T03:55:26.543Z,99747.59
2023-04-18T03:57:53.961Z,99746.16
2023-04-18T04:00:22.259Z,99746.28
2023-04-18T04:02:51.254Z,99751.72
2023-04-18T04:05:19.655Z,99747.47
2023-04-18T04:07:47.240Z,99751.69
2023-04-18T04:10:15.204Z,99752.34
2023-04-18T04:12:42.741Z,99761.50
2023-04-18T04:15:11.172Z,99755.13
2023-04-18T04:17:39.661Z,99759.53
2023-04-18T04:20:08.093Z,99770.13
2023-04-18T04:22:36.940Z,99768.91
2023-04-18T04:25:05.600Z,99763.97
2023-04-18T04:27:36.808Z,99767.59
2023-04-18T04:30:06.689Z,99772.91
2023-04-18T04:32:35.614Z,99766.31
2023-04-18T04:35:03.079Z,99773.63
2023-04-18T04:37:30.571Z,99770.94
2023-04-18T04:40:00.877Z,99777.97
2023-04-18T04:42:29.428Z,99779.28
2023-04-18T04:44:57.273Z,99785.38
2023-04-18T04:47:26.077Z,99771.03
2023-04-18T04:49:54.626Z,99785.16
2023-04-18T04:52:22.056Z,99778.38
2023-04-18T04:54:51.619Z,99781.50
2023-04-18T04:57:19.521Z,99783.75
2023-04-18T04:59:46.923Z,99779.37
2023-04-18T05:02:14.801Z,99787.84
2023-04-18T05:04:54.531Z,99787.50
2023-04-18T05:07:22.249Z,99794.16
2023-04-18T05:09:49.837Z,99789.06
2023-04-18T05:12:17.597Z,99795.91
2023-04-18T05:14:45.298Z,99790.19
2023-04-18T05:17:12.889Z,99800.25
2023-04-18T05:19:40.827Z,99796.94
2023-04-18T05:22:08.503Z,99798.31
2023-04-18T05:24:36.093Z,99803.56
2023-04-18T05:27:03.560Z,99796.97
2023-04-18T05:29:31.278Z,99804.00
2023-04-18T05:31:59.488Z,99801.81
2023-04-18T05:34:27.574Z,99809.91
2023-04-18T05:36:55.330Z,99807.69
2023-04-18T05:39:22.969Z,99808.47
2023-04-18T05:41:50.382Z,99810.91
2023-04-18T05:44:18.400Z,99813.19
2023-04-18T05:46:46.515Z,99817.69
2023-04-18T05:49:14.719Z,99825.50
2023-04-18T05:51:42.385Z,99817.53
2023-04-18T05:54:09.983Z,99818.03
2023-04-18T05:56:37.642Z,99824.25
2023-04-18T05:59:05.405Z,99814.97
2023-04-18T06:01:33.533Z,99817.16
2023-04-18T06:04:01.715Z,99822.34
2023-04-18T06:06:29.273Z,99821.44
2023-04-18T06:08:56.672Z,99826.37
2023-04-18T06:11:24.241Z,99820.44
2023-04-18T06:13:51.468Z,99823.56
2023-04-18T06:16:18.690Z,99829.44
2023-04-18T06:18:46.205Z,99826.66
2023-04-18T06:21:13.897Z,99833.44
2023-04-18T06:23:41.089Z,99828.81
2023-04-18T06:26:09.287Z,99833.37
2023-04-18T06:28:36.458Z,99836.56
2023-04-18T06:31:03.625Z,99830.88
2023-04-18T06:33:31.166Z,99835.19
2023-04-18T06:35:58.376Z,99833.63
2023-04-18T06:38:25.795Z,99827.41
2023-04-18T06:40:53.327Z,99828.78
2023-04-18T06:43:22.044Z,99837.25
2023-04-18T06:45:49.270Z,99833.78
2023-04-18T06:48:16.727Z,99836.31
2023-04-18T06:50:43.993Z,99838.66
2023-04-18T06:53:11.204Z,99835.94
2023-04-18T06:55:38.604Z,99845.53
2023-04-18T06:58:05.890Z,99843.91
2023-04-18T07:00:33.039Z,99846.03
2023-04-18T07:03:02.199Z,99845.22
2023-04-18T07:05:29.509Z,99842.56
2023-04-18T07:07:56.820Z,99846.91
2023-04-18T07:10:26.458Z,99850.59
2023-04-18T07:12:53.847Z,99853.91
2023-04-18T07:15:21.709Z,99849.84
2023-04-18T07:17:49.509Z,99850.06
2023-04-18T07:20:16.969Z,99860.75
2023-04-18T07:22:44.536Z,99860.59
2023-04-18T07:25:12.234Z,99851.09
2023-04-18T07:27:40.825Z,99859.97
2023-04-18T07:30:09.260Z,99850.28
2023-04-18T07:32:36.915Z,99847.31
2023-04-18T07:35:04.507Z,99859.25
2023-04-18T07:37:32.006Z,99858.50
2023-04-18T07:39:59.688Z,99854.44
2023-04-18T07:42:27.192Z,99859.66
2023-04-18T07:45:00.686Z,99863.72
2023-04-18T07:47:30.114Z,99861.47
2023-04-18T07:49:58.634Z,99873.00
2023-04-18T07:52:26.316Z,99870.03
2023-04-18T07:54:53.989Z,99878.37
2023-04-18T07:57:21.727Z,99866.31
2023-04-18T07:59:53.104Z,99867.84
2023-04-18T08:02:21.600Z,99872.88
2023-04-18T08:04:50.059Z,99870.97
2023-04-18T08:07:17.666Z,99878.94
2023-04-18T08:09:45.246Z,99872.75
2023-04-18T08:12:13.133Z,99870.72
2023-04-18T08:14:41.344Z,99873.19
2023-04-18T08:17:08.723Z,99875.19
2023-04-18T08:19:36.477Z,99881.50
2023-04-18T08:22:09.502Z,99875.25
2023-04-18T08:24:46.456Z,99880.97
2023-04-18T08:27:18.948Z,99888.66
2023-04-18T08:29:46.684Z,99886.28
2023-04-18T08:32:14.228Z,99894.25
2023-04-18T08:34:42.401Z,99885.47
2023-04-18T08:37:11.059Z,99891.41
2023-04-18T08:39:38.648Z,99891.66
2023-04-18T08:42:06.522Z,99887.72
2023-04-18T08:44:34.298Z,99894.87
2023-04-18T08:47:01.932Z,99887.88
2023-04-18T08:49:31.536Z,99889.66
2023-04-18T08:52:01.109Z,99891.91
2023-04-18T08:54:30.541Z,99889.78
2023-04-18T08:57:08.714Z,99889.88
2023-04-18T08:59:36.816Z,99884.50
2023-04-18T09:02:06.380Z,99889.88
2023-04-18T09:04:36.772Z,99900.72
2023-04-18T09:07:07.186Z,99894.44
2023-04-18T09:09:45.920Z,99891.03
2023-04-18T09:12:18.256Z,99884.25
2023-04-18T09:14:47.780Z,99885.56
2023-04-18T09:17:18.384Z,99881.00
2023-04-18T09:19:48.933Z,99888.53
2023-04-18T09:22:17.955Z,99885.53
2023-04-18T09:24:55.527Z,99879.00
2023-04-18T09:27:24.286Z,99882.47
2023-04-18T09:29:55.855Z,99900.22
2023-04-18T09:32:27.521Z,99890.78
2023-04-18T09:34:58.266Z,99889.13
2023-04-18T09:37:26.661Z,99891.00
2023-04-18T09:39:54.706Z,99890.09
2023-04-18T09:42:22.523Z,99890.81
2023-04-18T09:45:05.114Z,99893.69
2023-04-18T09:47:37.794Z,99884.53
2023-04-18T09:50:07.941Z,99891.88
2023-04-18T09:52:37.781Z,99894.22
2023-04-18T09:55:07.415Z,99894.69
2023-04-18T09:57:36.710Z,99890.47
2023-04-18T10:00:17.512Z,99895.47
2023-04-18T10:02:54.402Z,99895.34
2023-04-18T10:05:27.025Z,99884.00
2023-04-18T10:07:55.229Z,99880.38
2023-04-18T10:10:22.922Z,99881.84
2023-04-18T10:12:55.789Z,99885.78
2023-04-18T10:15:26.855Z,99885.84
2023-04-18T10:18:04.321Z,99887.25
2023-04-18T10:20:34.978Z,99889.75
2023-04-18T10:23:31.491Z,99890.19
2023-04-18T10:25:59.549Z,99881.16
2023-04-18T10:28:28.188Z,99874.62
2023-04-18T10:31:02.972Z,99886.22
2023-04-18T10:33:32.462Z,99885.03
2023-04-18T10:36:15.043Z,99875.78
2023-04-18T10:38:53.508Z,99882.78
2023-04-18T10:41:28.698Z,99876.84
2023-04-18T10:44:18.813Z,99878.59
2023-04-18T10:46:52.408Z,99875.09
2023-04-18T10:49:27.818Z,99874.28
2023-04-18T10:51:58.786Z,99871.78
2023-04-18T10:54:33.056Z,99869.03
2023-04-18T10:57:03.678Z,99867.94
2023-04-18T10:59:32.924Z,99866.97
2023-04-18T11:02:22.985Z,99871.50
2023-04-18T11:04:55.050Z,99865.00
2023-04-18T11:07:46.083Z,99869.09
2023-04-18T11:10:17.844Z,99861.66
2023-04-18T11:12:45.909Z,99868.69
2023-04-18T11:15:17.729Z,99862.94
2023-04-18T11:17:45.270Z,99869.56
2023-04-18T11:20:14.795Z,99865.66
2023-04-18T11:22:58.453Z,99863.09
2023-04-18T11:25:31.937Z,99865.38
2023-04-18T11:28:01.591Z,99868.06
2023-04-18T11:30:39.787Z,99867.69
2023-04-18T11:33:11.737Z,99876.91
2023-04-18T11:35:43.376Z,99871.87
2023-04-18T11:38:15.924Z,99864.97
2023-04-18T11:40:50.089Z,99866.63
2023-04-18T11:43:23.404Z,99869.28
2023-04-18T11:45:59.590Z,99873.50
2023-04-18T11:48:42.048Z,99874.88
2023-04-18T11:51:35.956Z,99876.25
2023-04-18T11:54:04.031Z,99874.53
2023-04-18T11:56:32.267Z,99865.56
2023-04-18T11:59:09.018Z,99868.41
2023-04-18T12:01:36.889Z,99865.75
2023-04-18T12:04:06.678Z,99863.81
2023-04-18T12:06:51.352Z,99860.91
2023-04-18T12:09:21.160Z,99861.94
2023-04-18T12:11:59.680Z,99866.50
2023-04-18T12:14:28.400Z,99864.50
2023-04-18T12:16:56.265Z,99857.44
2023-04-18T12:19:28.207Z,99864.47
2023-04-18T12:21:57.864Z,99860.72
2023-04-18T12:24:25.278Z,99855.69
2023-04-18T12:26:53.073Z,99849.28
2023-04-18T12:29:21.285Z,99855.34
2023-04-18T12:31:48.730Z,99854.38
2023-04-18T12:34:16.250Z,99860.31
2023-04-18T12:36:44.051Z,99853.06
2023-04-18T12:39:11.518Z,99854.19
2023-04-18T12:41:38.937Z,99862.56
2023-04-18T12:44:06.808Z,99862.25
2023-04-18T12:46:34.429Z,99861.66
2023-04-18T12:49:02.038Z,99864.56
2023-04-18T12:51:31.474Z,99859.91
2023-04-18T12:53:59.012Z,99860.75
2023-04-18T12:56:26.384Z,99859.19
2023-04-18T12:58:54.105Z,99859.50
2023-04-18T13:01:22.048Z,99856.22
2023-04-18T13:03:59.817Z,99851.97
2023-04-18T13:06:37.682Z,99842.13
2023-04-18T13:09:07.281Z,99848.09
2023-04-18T13:11:34.629Z,99848.69
2023-04-18T13:14:02.388Z,99847.69
2023-04-18T13:16:29.803Z,99859.09
2023-04-18T13:18:57.217Z,99851.38
2023-04-18T13:21:25.941Z,99846.97
2023-04-18T13:23:53.431Z,99852.78
2023-04-18T13:26:20.880Z,99859.94
2023-04-18T13:28:50.589Z,99852.56
2023-04-18T13:31:18.078Z,99862.09
2023-04-18T13:33:45.691Z,99856.47
2023-04-18T13:36:13.432Z,99854.50
2023-04-18T13:38:41.332Z,99861.69
2023-04-18T13:41:12.148Z,99864.84
2023-04-18T13:43:40.951Z,99860.34
2023-04-18T13:46:08.648Z,99863.13
2023-04-18T13:48:36.221Z,99861.41
2023-04-18T13:51:03.997Z,99860.56
2023-04-18T13:53:31.459Z,99859.69
2023-04-18T13:55:59.222Z,99850.34
2023-04-18T13:58:27.340Z,99850.81
2023-04-18T14:00:54.880Z,99850.69
2023-04-18T14:03:22.688Z,99842.94
2023-04-18T14:05:50.520Z,99832.66
2023-04-18T14:08:18.523Z,99839.72
2023-04-18T14:10:47.429Z,99835.56
2023-04-18T14:13:15.019Z,99831.91
2023-04-18T14:15:42.473Z,99836.41
2023-04-18T14:18:10.262Z,99831.84
2023-04-18T14:20:37.843Z,99832.59
2023-04-18T14:23:05.311Z,99831.00
2023-04-18T14:25:33.110Z,99831.75
2023-04-18T14:28:09.738Z,99828.41
2023-04-18T14:30:39.090Z,99837.06
2023-04-18T14:33:08.612Z,99839.53
2023-04-18T14:35:36.154Z,99840.69
2023-04-18T14:38:04.080Z,99826.66
2023-04-18T14:40:33.021Z,99834.53
2023-04-18T14:43:00.598Z,99840.81
2023-04-18T14:45:28.465Z,99834.66
2023-04-18T14:47:56.113Z,99838.84
2023-04-18T14:50:23.879Z,99838.03
2023-04-18T14:52:51.560Z,99832.03
2023-04-18T14:55:21.872Z,99837.41
2023-04-18T14:57:49.315Z,99841.75
2023-04-18T15:00:17.336Z,99840.91
2023-04-18T15:02:45.106Z,99845.19
2023-04-18T15:05:13.275Z,99837.38
2023-04-18T15:07:42.933Z,99845.31
2023-04-18T15:10:12.679Z,99839.19
2023-04-18T15:12:40.247Z,99841.72
2023-04-18T15:15:08.260Z,99828.31
2023-04-18T15:17:35.995Z,99834.25
2023-04-18T15:20:07.040Z,99827.38
2023-04-18T15:22:35.725Z,99830.03
2023-04-18T15:25:04.496Z,99831.88
2023-04-18T15:27:31.949Z,99833.56
2023-04-18T15:29:59.649Z,99831.03
2023-04-18T15:32:27.213Z,99832.69
2023-04-18T15:34:54.642Z,99833.66
2023-04-18T15:37:22.423Z,99826.59
2023-04-18T15:39:49.911Z,99833.72
2023-04-18T15:42:17.313Z,99829.28
2023-04-18T15:44:45.062Z,99832.75
2023-04-18T15:47:12.453Z,99840.50
2023-04-18T15:49:40.419Z,99838.66
2023-04-18T15:52:08.463Z,99844.03
2023-04-18T15:54:35.895Z,99835.38
2023-04-18T15:57:03.434Z,99844.97
2023-04-18T15:59:31.386Z,99835.44
2023-04-18T16:01:59.075Z,99844.31
2023-04-18T16:04:27.096Z,99839.91
2023-04-18T16:06:54.840Z,99846.94
2023-04-18T16:09:22.446Z,99849.50
2023-04-18T16:11:50.303Z,99852.59
2023-04-18T16:14:17.676Z,99860.41
2023-04-18T16:16:45.200Z,99860.75
2023-04-18T16:19:13.059Z,99857.88
2023-04-18T16:21:40.762Z,99868.06
2023-04-18T16:24:08.147Z,99873.25
2023-04-18T16:26:36.236Z,99859.62
2023-04-18T16:29:03.670Z,99870.16
2023-04-18T16:31:31.488Z,99868.47
2023-04-18T16:33:59.792Z,99865.06
2023-04-18T16:36:27.933Z,99863.25
2023-04-18T16:38:55.410Z,99872.72
2023-04-18T16:41:23.214Z,99862.25
2023-04-18T16:43:51.799Z,99868.44
2023-04-18T16:46:19.320Z,99873.50
2023-04-18T16:48:47.132Z,99873.31
2023-04-18T16:51:14.681Z,99868.03
2023-04-18T16:53:42.354Z,99870.56
2023-04-18T16:56:10.120Z,99866.09
2023-04-18T16:58:37.838Z,99873.78
2023-04-18T17:01:08.108Z,99876.44
2023-04-18T17:03:36.693Z,99872.03
2023-04-18T17:06:05.235Z,99883.38
2023-04-18T17:08:34.046Z,99872.78
2023-04-18T17:11:02.464Z,99882.44
2023-04-18T17:13:31.647Z,99877.16
2023-04-18T17:15:59.156Z,99870.16
2023-04-18T17:18:27.103Z,99872.69
2023-04-18T17:20:54.592Z,99873.41
2023-04-18T17:23:23.002Z,99875.41
2023-04-18T17:25:51.559Z,99875.16
2023-04-18T17:28:21.703Z,99882.06
2023-04-18T17:30:50.479Z,99878.37
2023-04-18T17:33:18.810Z,99882.75
2023-04-18T17:35:47.149Z,99891.47
2023-04-18T17:38:14.896Z,99892.56
2023-04-18T17:40:42.931Z,99900.06
2023-04-18T17:43:11.987Z,99894.47
2023-04-18T17:45:40.448Z,99902.94
2023-04-18T17:48:08.720Z,99901.31
2023-04-18T17:50:38.375Z,99906.53
2023-04-18T17:53:06.294Z,99901.28
2023-04-18T17:55:34.600Z,99916.03
2023-04-18T17:58:02.457Z,99908.78
2023-04-18T18:00:31.335Z,99918.16
2023-04-18T18:03:01.920Z,99912.59
2023-04-18T18:05:30.916Z,99916.00
2023-04-18T18:08:00.468Z,99917.25
2023-04-18T18:10:30.078Z,99922.53
2023-04-18T18:12:58.933Z,99932.69
2023-04-18T18:15:27.901Z,99930.03
2023-04-18T18:17:59.923Z,99925.41
2023-04-18T18:20:31.115Z,99936.91
2023-04-18T18:23:01.796Z,99935.28
2023-04-18T18:25:30.257Z,99938.16
2023-04-18T18:27:59.440Z,99939.09
2023-04-18T18:30:49.850Z,99947.56
2023-04-18T18:33:18.987Z,99950.75
2023-04-18T18:35:50.842Z,99941.75
2023-04-18T18:38:21.366Z,99944.72
2023-04-18T18:40:49.685Z,99942.75
2023-04-18T18:43:19.826Z,99944.81
2023-04-18T18:45:48.574Z,99944.94
2023-04-18T18:48:17.315Z,99948.09
2023-04-18T18:50:45.112Z,99947.47
2023-04-18T18:53:17.969Z,99948.53
2023-04-18T18:55:46.709Z,99941.59
2023-04-18T18:58:15.131Z,99948.50
2023-04-18T19:00:43.292Z,99952.88
2023-04-18T19:03:13.401Z,99951.12
2023-04-18T19:05:42.043Z,99949.25
2023-04-18T19:08:12.375Z,99947.34
2023-04-18T19:10:43.526Z,99951.66
2023-04-18T19:13:12.280Z,99950.72
2023-04-18T19:15:41.178Z,99965.59
2023-04-18T19:18:10.885Z,99959.59
2023-04-18T19:20:40.401Z,99967.41
2023-04-18T19:23:08.643Z,99959.34
2023-04-18T19:25:37.087Z,99966.41
2023-04-18T19:28:08.057Z,99962.94
2023-04-18T19:30:36.908Z,99974.06
2023-04-18T19:33:05.291Z,99974.22
2023-04-18T19:35:34.737Z,99984.72
2023-04-18T19:38:04.139Z,99993.53
2023-04-18T19:40:32.619Z,99994.81
2023-04-18T19:43:00.890Z,99999.47
2023-04-18T19:45:31.086Z,100001.81
2023-04-18T19:48:03.858Z,100009.16
2023-04-18T19:50:36.524Z,100006.41
2023-04-18T19:53:04.896Z,100011.47
2023-04-18T19:55:33.860Z,100002.63
2023-04-18T19:58:02.621Z,100013.13
2023-04-18T20:00:30.336Z,100010.47
2023-04-18T20:02:59.677Z,100004.31
2023-04-18T20:05:28.816Z,100006.00
2023-04-18T20:07:57.319Z,100011.03
2023-04-18T20:10:25.861Z,100014.94
2023-04-18T20:12:54.154Z,100009.87
2023-04-18T20:15:23.093Z,100007.84
2023-04-18T20:17:53.604Z,100013.91
2023-04-18T20:20:21.641Z,100010.41
2023-04-18T20:22:49.752Z,100014.47
2023-04-18T20:25:18.791Z,100011.75
2023-04-18T20:27:50.880Z,100019.59
2023-04-18T20:30:19.054Z,100022.97
2023-04-18T20:32:48.078Z,100021.81
2023-04-18T20:35:17.070Z,100020.59
2023-04-18T20:37:44.944Z,100017.59
2023-04-18T20:40:12.873Z,100014.16
2023-04-18T20:42:40.850Z,100008.12
2023-04-18T20:45:12.022Z,100010.97
2023-04-18T20:47:41.742Z,100004.50
2023-04-18T20:50:10.964Z,100008.62
2023-04-18T20:52:38.607Z,100001.06
2023-04-18T20:55:06.543Z,100013.13
2023-04-18T20:57:34.328Z,100006.87
2023-04-18T21:00:02.128Z,100005.38
2023-04-18T21:02:30.512Z,99991.38
2023-04-18T21:05:01.091Z,99995.63
2023-04-18T21:07:29.688Z,100001.28
2023-04-18T21:09:57.089Z,99990.25
2023-04-18T21:12:24.707Z,100005.81
2023-04-18T21:14:52.115Z,99997.75
2023-04-18T21:17:19.559Z,100006.87
2023-04-18T21:19:48.023Z,100007.56
2023-04-18T21:22:16.176Z,100010.75
2023-04-18T21:24:43.918Z,100013.06
2023-04-18T21:27:11.673Z,100009.94
2023-04-18T21:29:39.049Z,100011.69
2023-04-18T21:32:06.452Z,100013.03
2023-04-18T21:34:34.150Z,100007.00
2023-04-18T21:37:01.642Z,99997.78
2023-04-18T21:39:29.066Z,100003.69
2023-04-18T21:41:57.298Z,99993.84
2023-04-18T21:44:24.796Z,99995.84
2023-04-18T21:46:52.509Z,99989.88
2023-04-18T21:49:20.408Z,100002.91
2023-04-18T21:51:48.990Z,99996.56
2023-04-18T21:54:16.457Z,99995.63
2023-04-18T21:56:44.172Z,99997.50
2023-04-18T21:59:11.546Z,99992.91
2023-04-18T22:01:39.202Z,99990.97
2023-04-18T22:04:07.094Z,99988.41
2023-04-18T22:06:34.850Z,99989.78
2023-04-18T22:09:02.279Z,99994.47
2023-04-18T22:11:29.980Z,99990.53
2023-04-18T22:13:58.182Z,99995.53
2023-04-18T22:16:25.926Z,99985.91
2023-04-18T22:18:54.039Z,99985.31
2023-04-18T22:21:21.501Z,99984.22
2023-04-18T22:24:07.986Z,99986.63
2023-04-18T22:26:35.679Z,99975.03
2023-04-18T22:29:03.083Z,99975.53
2023-04-18T22:31:30.749Z,99977.09
2023-04-18T22:33:58.439Z,99971.97
2023-04-18T22:36:27.600Z,99975.47
2023-04-18T22:38:55.031Z,99977.06
2023-04-18T22:41:22.696Z,99975.66
2023-04-18T22:43:50.114Z,99972.44
2023-04-18T22:46:17.700Z,99977.38
2023-04-18T22:48:46.233Z,99975.84
2023-04-18T22:51:18.260Z,99972.50
2023-04-18T22:53:46.093Z,99968.78
2023-04-18T22:56:13.463Z,99964.16
2023-04-18T22:58:40.832Z,99961.88
2023-04-18T23:01:08.552Z,99960.84
2023-04-18T23:03:36.263Z,99957.50
2023-04-18T23:06:03.840Z,99948.28
2023-04-18T23:08:31.585Z,99953.44
2023-04-18T23:10:58.973Z,99946.28
2023-04-18T23:13:26.313Z,99945.97
2023-04-18T23:15:54.020Z,99949.66
2023-04-18T23:18:21.436Z,99938.75
2023-04-18T23:20:48.825Z,99943.69
2023-04-18T23:23:16.592Z,99940.00
2023-04-18T23:25:44.270Z,99939.00
2023-04-18T23:28:13.521Z,99927.19
2023-04-18T23:30:41.201Z,99929.97
2023-04-18T23:33:08.890Z,99920.09
2023-04-18T23:35:36.298Z,99920.69
2023-04-18T23:38:03.953Z,99916.66
2023-04-18T23:40:31.372Z,99922.84
2023-04-18T23:42:59.056Z,99913.31
2023-04-18T23:45:26.821Z,99904.66
2023-04-18T23:47:54.407Z,99907.53
2023-04-18T23:50:21.836Z,99893.16
2023-04-18T23:52:49.963Z,99894.97
2023-04-18T23:55:17.419Z,99896.19
2023-04-18T23:57:44.805Z,99891.59
